createdAt,value
2018-07-30T00:01:19.296Z,3.57
2018-07-30T00:03:47.797Z,3.40
2018-07-30T00:06:16.137Z,3.90
2018-07-30T00:08:45.185Z,3.90
2018-07-30T00:11:13.554Z,3.33
2018-07-30T00:13:42.165Z,3.60
2018-07-30T00:16:10.608Z,3.70
2018-07-30T00:18:38.961Z,3.70
2018-07-30T00:21:07.424Z,3.43
2018-07-30T00:23:35.905Z,3.60
2018-07-30T00:26:04.386Z,3.03
2018-07-30T00:28:32.748Z,3.10
2018-07-30T00:31:01.154Z,3.10
2018-07-30T00:33:29.519Z,2.90
2018-07-30T00:35:57.948Z,2.80
2018-07-30T00:38:26.036Z,2.73
2018-07-30T00:40:54.541Z,2.77
2018-07-30T00:43:23.036Z,2.70
2018-07-30T00:45:51.376Z,2.83
2018-07-30T00:48:19.899Z,2.70
2018-07-30T00:50:48.224Z,2.57
2018-07-30T00:53:16.572Z,2.90
2018-07-30T00:55:44.929Z,2.47
2018-07-30T00:58:13.291Z,2.93
2018-07-30T01:00:41.650Z,2.00
2018-07-30T01:03:10.179Z,2.07
2018-07-30T01:05:38.532Z,2.10
2018-07-30T01:08:06.904Z,1.83
2018-07-30T01:10:35.284Z,2.07
2018-07-30T01:13:03.637Z,1.90
2018-07-30T01:15:31.991Z,2.03
2018-07-30T01:18:00.645Z,2.00
2018-07-30T01:20:28.998Z,1.90
2018-07-30T01:22:57.384Z,1.80
2018-07-30T01:25:25.735Z,1.80
2018-07-30T01:27:54.083Z,1.70
2018-07-30T01:30:22.530Z,1.70
2018-07-30T01:32:51.002Z,1.67
2018-07-30T01:35:20.340Z,1.80
2018-07-30T01:37:48.830Z,1.80
2018-07-30T01:40:17.301Z,1.83
2018-07-30T01:42:45.900Z,1.90
2018-07-30T01:45:14.489Z,2.00
2018-07-30T01:47:43.327Z,2.00
2018-07-30T01:50:12.414Z,1.87
2018-07-30T01:52:40.809Z,2.37
2018-07-30T01:55:09.192Z,2.50
2018-07-30T01:57:37.629Z,1.90
2018-07-30T02:00:06.567Z,1.90
2018-07-30T02:02:41.598Z,2.07
2018-07-30T02:05:10.061Z,1.87
2018-07-30T02:07:39.193Z,2.10
2018-07-30T02:10:09.333Z,2.20
2018-07-30T02:12:38.692Z,1.90
2018-07-30T02:15:07.320Z,2.03
2018-07-30T02:17:35.704Z,1.87
2018-07-30T02:20:04.217Z,2.40
2018-07-30T02:22:32.773Z,1.83
2018-07-30T02:25:00.845Z,2.10
2018-07-30T02:27:35.750Z,2.00
2018-07-30T02:30:05.472Z,2.00
2018-07-30T02:32:33.876Z,1.83
2018-07-30T02:35:02.320Z,1.97
2018-07-30T02:37:31.322Z,1.77
2018-07-30T02:39:59.647Z,1.80
2018-07-30T02:42:27.991Z,2.00
2018-07-30T02:44:56.486Z,1.87
2018-07-30T02:47:24.819Z,1.80
2018-07-30T02:49:53.508Z,1.80
2018-07-30T02:52:21.860Z,1.90
2018-07-30T02:54:50.519Z,2.17
2018-07-30T02:57:18.908Z,2.00
2018-07-30T02:59:47.240Z,1.90
2018-07-30T03:02:15.824Z,1.70
2018-07-30T03:04:44.176Z,1.63
2018-07-30T03:07:13.020Z,2.13
2018-07-30T03:09:41.356Z,1.67
2018-07-30T03:12:09.835Z,1.53
2018-07-30T03:14:38.208Z,1.43
2018-07-30T03:17:06.557Z,1.80
2018-07-30T03:19:34.936Z,1.40
2018-07-30T03:22:03.389Z,1.83
2018-07-30T03:24:32.504Z,1.40
2018-07-30T03:27:01.372Z,1.53
2018-07-30T03:29:29.705Z,1.80
2018-07-30T03:31:58.078Z,1.70
2018-07-30T03:34:26.461Z,1.87
2018-07-30T03:36:54.800Z,1.70
2018-07-30T03:39:22.904Z,1.40
2018-07-30T03:41:51.247Z,1.50
2018-07-30T03:44:19.594Z,1.70
2018-07-30T03:46:48.306Z,1.70
2018-07-30T03:49:16.704Z,1.83
2018-07-30T03:51:46.144Z,1.50
2018-07-30T03:54:14.680Z,1.30
2018-07-30T03:56:43.100Z,1.90
2018-07-30T03:59:11.453Z,1.50
2018-07-30T04:01:39.812Z,1.80
2018-07-30T04:04:08.185Z,1.80
2018-07-30T04:06:36.744Z,1.80
2018-07-30T04:09:06.791Z,2.33
2018-07-30T04:11:34.871Z,2.00
2018-07-30T04:14:03.234Z,1.70
2018-07-30T04:16:36.405Z,2.23
2018-07-30T04:19:05.005Z,2.07
2018-07-30T04:21:33.361Z,1.90
2018-07-30T04:24:01.727Z,1.80
2018-07-30T04:26:30.156Z,1.97
2018-07-30T04:28:58.665Z,2.07
2018-07-30T04:31:27.009Z,1.60
2018-07-30T04:33:55.426Z,1.93
2018-07-30T04:36:23.763Z,1.60
2018-07-30T04:38:52.427Z,1.67
2018-07-30T04:41:20.759Z,1.53
2018-07-30T04:43:49.145Z,1.70
2018-07-30T04:46:17.791Z,1.47
2018-07-30T04:48:46.659Z,2.20
2018-07-30T04:51:14.996Z,1.60
2018-07-30T04:53:43.352Z,1.50
2018-07-30T04:56:11.733Z,1.97
2018-07-30T04:58:40.116Z,1.83
2018-07-30T05:01:08.704Z,1.87
2018-07-30T05:03:37.165Z,1.93
2018-07-30T05:06:05.691Z,2.10
2018-07-30T05:08:34.578Z,1.90
2018-07-30T05:11:03.193Z,1.70
2018-07-30T05:13:31.703Z,1.80
2018-07-30T05:16:00.334Z,2.07
2018-07-30T05:18:28.683Z,1.73
2018-07-30T05:20:57.064Z,2.07
2018-07-30T05:23:25.400Z,2.10
2018-07-30T05:25:53.960Z,2.00
2018-07-30T05:28:22.367Z,1.80
2018-07-30T05:30:50.858Z,1.67
2018-07-30T05:33:19.286Z,1.77
2018-07-30T05:35:47.673Z,1.77
2018-07-30T05:38:16.188Z,1.87
2018-07-30T05:40:44.545Z,1.90
2018-07-30T05:43:12.960Z,1.80
2018-07-30T05:45:41.640Z,1.97
2018-07-30T05:48:09.996Z,2.30
2018-07-30T05:50:38.527Z,2.00
2018-07-30T05:53:06.868Z,2.10
2018-07-30T05:55:35.404Z,2.10
2018-07-30T05:58:03.811Z,2.13
2018-07-30T06:00:32.419Z,2.20
2018-07-30T06:03:01.586Z,2.13
2018-07-30T06:05:30.015Z,1.90
2018-07-30T06:07:58.365Z,2.10
2018-07-30T06:10:26.808Z,2.20
2018-07-30T06:12:55.545Z,2.00
2018-07-30T06:15:23.931Z,2.00
2018-07-30T06:17:52.350Z,1.93
2018-07-30T06:20:21.179Z,2.27
2018-07-30T06:22:49.873Z,2.03
2018-07-30T06:25:18.483Z,2.37
2018-07-30T06:27:46.832Z,2.40
2018-07-30T06:30:15.292Z,2.30
2018-07-30T06:32:44.025Z,2.43
2018-07-30T06:35:12.416Z,2.50
2018-07-30T06:37:40.792Z,2.70
2018-07-30T06:40:09.132Z,2.60
2018-07-30T06:42:37.495Z,2.80
2018-07-30T06:45:06.160Z,3.20
2018-07-30T06:47:34.509Z,3.83
2018-07-30T06:50:03.042Z,5.20
2018-07-30T06:52:31.395Z,4.53
2018-07-30T06:54:59.836Z,6.63
2018-07-30T06:57:28.204Z,8.20
2018-07-30T06:59:56.575Z,6.50
2018-07-30T07:02:25.009Z,7.07
2018-07-30T07:04:53.592Z,7.43
2018-07-30T07:07:22.049Z,7.43
2018-07-30T07:09:50.418Z,7.10
2018-07-30T07:12:19.479Z,7.50
2018-07-30T07:14:47.809Z,7.20
2018-07-30T07:17:16.339Z,7.63
2018-07-30T07:19:44.719Z,7.80
2018-07-30T07:22:13.352Z,7.17
2018-07-30T07:24:41.885Z,7.30
2018-07-30T07:27:10.298Z,7.30
2018-07-30T07:29:39.391Z,6.83
2018-07-30T07:32:08.447Z,6.43
2018-07-30T07:34:37.064Z,6.13
2018-07-30T07:37:05.525Z,6.47
2018-07-30T07:39:33.882Z,6.47
2018-07-30T07:42:02.404Z,5.83
2018-07-30T07:44:30.763Z,5.50
2018-07-30T07:46:59.700Z,5.50
2018-07-30T07:49:28.308Z,5.70
2018-07-30T07:51:56.780Z,5.20
2018-07-30T07:54:25.299Z,5.23
2018-07-30T07:56:53.736Z,4.70
2018-07-30T07:59:22.375Z,4.17
2018-07-30T08:01:50.733Z,4.67
2018-07-30T08:04:19.339Z,4.20
2018-07-30T08:06:47.719Z,4.30
2018-07-30T08:09:16.137Z,3.80
2018-07-30T08:11:44.492Z,5.20
2018-07-30T08:14:12.980Z,4.00
2018-07-30T08:16:41.561Z,3.90
2018-07-30T08:19:09.966Z,4.40
2018-07-30T08:21:38.348Z,4.03
2018-07-30T08:24:07.311Z,4.53
2018-07-30T08:26:35.671Z,4.57
2018-07-30T08:29:04.767Z,3.97
2018-07-30T08:31:33.136Z,4.33
2018-07-30T08:34:01.567Z,3.23
2018-07-30T08:36:30.824Z,4.10
2018-07-30T08:38:59.192Z,3.93
2018-07-30T08:41:27.551Z,3.30
2018-07-30T08:43:55.911Z,3.50
2018-07-30T08:46:24.634Z,3.63
2018-07-30T08:48:53.242Z,3.30
2018-07-30T08:51:21.550Z,3.20
2018-07-30T08:53:49.925Z,3.00
2018-07-30T08:56:18.502Z,3.00
2018-07-30T08:58:46.839Z,2.63
2018-07-30T09:01:15.197Z,3.03
2018-07-30T09:03:44.381Z,2.80
2018-07-30T09:06:12.724Z,2.30
2018-07-30T09:08:41.164Z,2.50
2018-07-30T09:11:09.501Z,2.40
2018-07-30T09:13:37.984Z,2.70
2018-07-30T09:16:06.251Z,2.30
2018-07-30T09:18:34.608Z,2.20
2018-07-30T09:21:03.828Z,2.20
2018-07-30T09:23:38.939Z,2.00
2018-07-30T09:26:07.294Z,2.30
2018-07-30T09:28:35.665Z,2.10
2018-07-30T09:31:04.069Z,1.70
2018-07-30T09:33:32.496Z,2.03
2018-07-30T09:36:01.032Z,2.10
2018-07-30T09:38:30.084Z,1.80
2018-07-30T09:40:58.452Z,2.10
2018-07-30T09:43:27.012Z,1.60
2018-07-30T09:45:55.405Z,1.83
2018-07-30T09:48:24.344Z,1.50
2018-07-30T09:50:52.701Z,1.50
2018-07-30T09:53:21.041Z,1.30
2018-07-30T09:55:49.502Z,1.93
2018-07-30T09:58:17.855Z,1.90
2018-07-30T10:00:51.781Z,1.70
2018-07-30T10:03:20.136Z,1.70
2018-07-30T10:05:48.478Z,1.50
2018-07-30T10:08:17.115Z,1.50
2018-07-30T10:10:45.483Z,1.60
2018-07-30T10:13:13.878Z,1.30
2018-07-30T10:15:42.413Z,1.53
2018-07-30T10:18:11.001Z,1.40
2018-07-30T10:20:39.320Z,1.67
2018-07-30T10:23:07.870Z,1.50
2018-07-30T10:25:36.263Z,1.50
2018-07-30T10:28:04.652Z,1.50
2018-07-30T10:30:33.051Z,1.50
2018-07-30T10:33:02.197Z,1.27
2018-07-30T10:35:30.701Z,1.20
2018-07-30T10:37:59.188Z,1.30
2018-07-30T10:40:27.684Z,1.60
2018-07-30T10:42:56.036Z,1.40
2018-07-30T10:45:24.646Z,1.47
2018-07-30T10:47:53.058Z,1.10
2018-07-30T10:50:21.416Z,1.00
2018-07-30T10:52:49.841Z,1.33
2018-07-30T10:55:18.233Z,1.40
2018-07-30T10:57:46.633Z,1.27
2018-07-30T11:00:15.162Z,1.40
2018-07-30T11:02:43.509Z,1.13
2018-07-30T11:05:11.875Z,1.30
2018-07-30T11:07:40.839Z,1.40
2018-07-30T11:10:09.214Z,1.07
2018-07-30T11:12:37.584Z,1.10
2018-07-30T11:15:06.198Z,1.20
2018-07-30T11:17:34.790Z,1.50
2018-07-30T11:20:03.973Z,1.30
2018-07-30T11:22:32.807Z,1.33
2018-07-30T11:25:01.209Z,1.00
2018-07-30T11:27:29.709Z,1.30
2018-07-30T11:29:58.243Z,1.40
2018-07-30T11:32:26.606Z,1.27
2018-07-30T11:34:54.964Z,1.33
2018-07-30T11:37:23.500Z,1.20
2018-07-30T11:39:51.952Z,1.20
2018-07-30T11:42:20.337Z,1.20
2018-07-30T11:44:48.729Z,1.20
2018-07-30T11:47:17.344Z,1.33
2018-07-30T11:49:45.736Z,1.13
2018-07-30T11:52:14.212Z,1.50
2018-07-30T11:54:42.674Z,1.20
2018-07-30T11:57:11.032Z,1.20
2018-07-30T11:59:39.393Z,1.50
2018-07-30T12:02:07.804Z,1.40
2018-07-30T12:04:36.776Z,1.43
2018-07-30T12:07:05.380Z,1.47
2018-07-30T12:09:33.755Z,0.93
2018-07-30T12:12:02.144Z,1.40
2018-07-30T12:14:30.513Z,1.40
2018-07-30T12:16:59.031Z,1.57
2018-07-30T12:19:27.432Z,1.50
2018-07-30T12:21:56.004Z,1.30
2018-07-30T12:24:24.348Z,1.80
2018-07-30T12:26:52.704Z,2.00
2018-07-30T12:29:21.069Z,1.80
2018-07-30T12:31:49.541Z,1.50
2018-07-30T12:34:17.910Z,1.30
2018-07-30T12:36:46.279Z,1.50
2018-07-30T12:39:14.693Z,1.50
2018-07-30T12:41:43.164Z,1.50
2018-07-30T12:44:11.569Z,1.70
2018-07-30T12:46:41.078Z,1.40
2018-07-30T12:49:09.959Z,1.73
2018-07-30T12:51:38.313Z,1.90
2018-07-30T12:54:06.736Z,1.50
2018-07-30T12:56:35.852Z,1.50
2018-07-30T12:59:04.332Z,1.60
2018-07-30T13:01:33.163Z,1.50
2018-07-30T13:04:01.697Z,1.50
2018-07-30T13:06:30.057Z,1.50
2018-07-30T13:08:58.415Z,1.63
2018-07-30T13:11:26.822Z,1.20
2018-07-30T13:13:55.745Z,1.27
2018-07-30T13:16:24.288Z,1.40
2018-07-30T13:18:52.675Z,1.20
2018-07-30T13:21:21.044Z,1.10
2018-07-30T13:23:49.457Z,1.33
2018-07-30T13:26:18.637Z,1.30
2018-07-30T13:28:47.539Z,1.33
2018-07-30T13:31:15.929Z,1.17
2018-07-30T13:33:44.917Z,1.30
2018-07-30T13:36:13.015Z,1.30
2018-07-30T13:38:41.397Z,1.30
2018-07-30T13:41:10.496Z,1.30
2018-07-30T13:43:38.851Z,1.30
2018-07-30T13:46:07.209Z,1.10
2018-07-30T13:48:35.731Z,1.20
2018-07-30T13:51:04.265Z,1.10
2018-07-30T13:53:32.647Z,1.10
2018-07-30T13:56:01.011Z,1.00
2018-07-30T13:58:30.056Z,1.10
2018-07-30T14:00:58.461Z,1.10
2018-07-30T14:03:26.811Z,1.03
2018-07-30T14:05:55.175Z,1.20
2018-07-30T14:08:23.860Z,1.10
2018-07-30T14:10:52.346Z,1.10
2018-07-30T14:13:20.756Z,1.07
2018-07-30T14:15:49.122Z,1.13
2018-07-30T14:18:18.025Z,0.97
2018-07-30T14:20:46.525Z,1.20
2018-07-30T14:23:14.985Z,0.83
2018-07-30T14:25:43.360Z,1.00
2018-07-30T14:28:11.894Z,1.27
2018-07-30T14:30:41.080Z,1.40
2018-07-30T14:33:09.519Z,1.37
2018-07-30T14:35:37.932Z,1.10
2018-07-30T14:38:06.448Z,1.30
2018-07-30T14:40:34.803Z,1.20
2018-07-30T14:43:03.264Z,1.30
2018-07-30T14:45:31.843Z,1.00
2018-07-30T14:48:00.276Z,1.10
2018-07-30T14:50:28.632Z,1.17
2018-07-30T14:52:57.045Z,0.90
2018-07-30T14:55:25.420Z,1.10
2018-07-30T14:57:53.671Z,1.10
2018-07-30T15:00:22.164Z,0.90
2018-07-30T15:02:50.636Z,1.40
2018-07-30T15:05:21.488Z,1.60
2018-07-30T15:07:51.099Z,1.23
2018-07-30T15:10:19.531Z,1.47
2018-07-30T15:12:47.964Z,1.10
2018-07-30T15:15:16.310Z,1.00
2018-07-30T15:17:44.658Z,1.20
2018-07-30T15:20:13.189Z,1.30
2018-07-30T15:22:41.540Z,1.43
2018-07-30T15:25:09.912Z,1.60
2018-07-30T15:27:38.364Z,1.50
2018-07-30T15:30:08.127Z,1.50
2018-07-30T15:32:36.596Z,1.27
2018-07-30T15:35:05.023Z,1.70
2018-07-30T15:37:33.444Z,1.37
2018-07-30T15:40:01.995Z,1.57
2018-07-30T15:42:30.512Z,1.87
2018-07-30T15:44:58.889Z,1.50
2018-07-30T15:47:27.513Z,1.50
2018-07-30T15:49:55.852Z,1.70
2018-07-30T15:52:24.362Z,1.40
2018-07-30T15:54:52.933Z,1.60
2018-07-30T15:57:21.387Z,1.20
2018-07-30T15:59:49.794Z,1.40
2018-07-30T16:02:18.208Z,1.30
2018-07-30T16:04:46.591Z,1.77
2018-07-30T16:07:14.991Z,1.93
2018-07-30T16:09:43.355Z,2.07
2018-07-30T16:12:11.910Z,2.07
2018-07-30T16:14:40.470Z,2.60
2018-07-30T16:17:10.101Z,2.40
2018-07-30T16:19:38.985Z,2.33
2018-07-30T16:22:08.484Z,2.43
2018-07-30T16:24:37.558Z,2.60
2018-07-30T16:27:06.536Z,3.37
2018-07-30T16:29:35.095Z,3.90
2018-07-30T16:32:04.148Z,5.70
2018-07-30T16:34:32.739Z,6.17
2018-07-30T16:37:01.331Z,6.37
2018-07-30T16:39:29.796Z,5.93
2018-07-30T16:41:58.330Z,5.20
2018-07-30T16:44:26.394Z,5.23
2018-07-30T16:46:54.897Z,5.63
2018-07-30T16:49:23.447Z,5.63
2018-07-30T16:51:52.036Z,5.20
2018-07-30T16:54:20.453Z,5.23
2018-07-30T16:56:48.871Z,4.80
2018-07-30T16:59:17.961Z,4.27
2018-07-30T17:01:46.328Z,4.63
2018-07-30T17:04:14.771Z,4.33
2018-07-30T17:06:43.170Z,5.00
2018-07-30T17:09:12.325Z,4.90
2018-07-30T17:11:41.016Z,4.77
2018-07-30T17:14:09.592Z,4.70
2018-07-30T17:16:37.952Z,4.53
2018-07-30T17:19:06.697Z,4.47
2018-07-30T17:21:35.061Z,3.97
2018-07-30T17:24:03.441Z,4.13
2018-07-30T17:26:31.820Z,3.80
2018-07-30T17:29:00.541Z,4.10
2018-07-30T17:31:29.234Z,3.30
2018-07-30T17:33:58.610Z,3.53
2018-07-30T17:36:27.503Z,2.63
2018-07-30T17:38:56.646Z,3.03
2018-07-30T17:41:25.489Z,2.87
2018-07-30T17:43:53.937Z,2.20
2018-07-30T17:46:22.758Z,2.23
2018-07-30T17:48:51.159Z,1.87
2018-07-30T17:51:19.939Z,2.13
2018-07-30T17:53:48.730Z,1.80
2018-07-30T17:56:17.234Z,1.60
2018-07-30T17:58:45.989Z,1.70
2018-07-30T18:01:15.577Z,1.80
2018-07-30T18:03:44.384Z,1.73
2018-07-30T18:06:12.911Z,1.47
2018-07-30T18:08:41.347Z,1.20
2018-07-30T18:11:09.866Z,1.30
2018-07-30T18:13:38.227Z,1.30
2018-07-30T18:16:06.604Z,1.27
2018-07-30T18:18:35.027Z,1.37
2018-07-30T18:21:04.236Z,1.30
2018-07-30T18:23:32.805Z,1.20
2018-07-30T18:26:01.252Z,1.23
2018-07-30T18:28:29.640Z,1.40
2018-07-30T18:30:58.041Z,1.60
2018-07-30T18:33:26.478Z,1.47
2018-07-30T18:35:55.064Z,1.27
2018-07-30T18:38:23.480Z,1.20
2018-07-30T18:40:51.940Z,1.23
2018-07-30T18:43:20.245Z,1.20
2018-07-30T18:45:48.593Z,1.40
2018-07-30T18:48:17.140Z,1.60
2018-07-30T18:50:45.499Z,1.40
2018-07-30T18:53:14.001Z,1.20
2018-07-30T18:55:42.363Z,1.33
2018-07-30T18:58:11.202Z,1.20
2018-07-30T19:00:40.662Z,1.40
2018-07-30T19:03:09.036Z,1.30
2018-07-30T19:05:37.518Z,1.17
2018-07-30T19:08:07.245Z,1.20
2018-07-30T19:10:35.860Z,1.33
2018-07-30T19:13:04.284Z,1.30
2018-07-30T19:15:32.752Z,1.43
2018-07-30T19:18:01.244Z,1.40
2018-07-30T19:20:30.275Z,1.33
2018-07-30T19:22:59.886Z,1.37
2018-07-30T19:25:28.750Z,1.17
2018-07-30T19:27:57.680Z,1.30
2018-07-30T19:30:26.504Z,1.80
2018-07-30T19:32:55.051Z,1.57
2018-07-30T19:35:23.680Z,1.70
2018-07-30T19:37:53.081Z,1.70
2018-07-30T19:40:22.318Z,1.90
2018-07-30T19:42:51.342Z,1.97
2018-07-30T19:45:20.040Z,2.30
2018-07-30T19:47:48.603Z,2.60
2018-07-30T19:50:17.232Z,2.33
2018-07-30T19:52:45.985Z,2.50
2018-07-30T19:55:14.856Z,2.83
2018-07-30T19:57:44.725Z,2.70
2018-07-30T20:00:13.437Z,2.77
2018-07-30T20:02:42.325Z,2.93
2018-07-30T20:05:11.075Z,2.90
2018-07-30T20:07:40.025Z,3.50
2018-07-30T20:10:08.669Z,3.50
2018-07-30T20:12:37.708Z,2.87
2018-07-30T20:15:07.314Z,3.40
2018-07-30T20:17:36.295Z,3.53
2018-07-30T20:20:05.923Z,3.33
2018-07-30T20:22:34.596Z,3.97
2018-07-30T20:25:03.054Z,3.80
2018-07-30T20:27:32.079Z,3.93
2018-07-30T20:30:01.067Z,3.93
2018-07-30T20:32:29.527Z,3.87
2018-07-30T20:34:59.091Z,4.27
2018-07-30T20:37:27.902Z,4.90
2018-07-30T20:39:56.667Z,4.60
2018-07-30T20:42:25.127Z,4.60
2018-07-30T20:44:54.364Z,4.60
2018-07-30T20:47:22.905Z,4.50
2018-07-30T20:49:52.204Z,5.10
2018-07-30T20:52:21.369Z,4.67
2018-07-30T20:54:50.136Z,5.37
2018-07-30T20:57:18.699Z,5.00
2018-07-30T20:59:47.132Z,5.47
2018-07-30T21:02:15.687Z,6.87
2018-07-30T21:04:44.364Z,4.97
2018-07-30T21:07:12.731Z,4.70
2018-07-30T21:09:41.232Z,4.73
2018-07-30T21:12:09.916Z,4.77
2018-07-30T21:14:38.432Z,5.63
2018-07-30T21:17:07.007Z,5.30
2018-07-30T21:19:36.443Z,6.73
2018-07-30T21:22:04.904Z,5.40
2018-07-30T21:24:33.293Z,5.47
2018-07-30T21:27:02.237Z,5.13
2018-07-30T21:29:31.393Z,5.00
2018-07-30T21:31:59.768Z,5.50
2018-07-30T21:34:28.951Z,4.83
2018-07-30T21:36:58.408Z,5.47
2018-07-30T21:39:27.856Z,5.50
2018-07-30T21:41:56.897Z,5.60
2018-07-30T21:44:25.505Z,5.90
2018-07-30T21:46:54.005Z,5.40
2018-07-30T21:49:22.375Z,5.40
2018-07-30T21:51:51.588Z,6.27
2018-07-30T21:54:20.089Z,5.67
2018-07-30T21:56:48.761Z,5.83
2018-07-30T21:59:17.488Z,5.83
2018-07-30T22:01:46.123Z,5.97
2018-07-30T22:04:14.561Z,6.70
2018-07-30T22:06:43.115Z,6.87
2018-07-30T22:09:11.634Z,6.87
2018-07-30T22:11:40.846Z,6.57
2018-07-30T22:14:09.295Z,6.70
2018-07-30T22:16:38.591Z,5.90
2018-07-30T22:19:07.077Z,5.90
2018-07-30T22:21:35.576Z,5.70
2018-07-30T22:24:04.286Z,6.00
2018-07-30T22:26:32.944Z,5.23
2018-07-30T22:29:01.537Z,5.50
2018-07-30T22:31:29.888Z,5.53
2018-07-30T22:33:58.509Z,6.70
2018-07-30T22:36:26.864Z,7.00
2018-07-30T22:38:55.237Z,6.43
2018-07-30T22:41:23.856Z,6.70
2018-07-30T22:43:52.167Z,6.30
2018-07-30T22:46:20.680Z,7.60
2018-07-30T22:48:49.016Z,7.43
2018-07-30T22:51:17.392Z,8.70
2018-07-30T22:53:46.624Z,7.13
2018-07-30T22:56:15.061Z,8.30
2018-07-30T22:58:43.735Z,7.10
2018-07-30T23:01:12.364Z,7.10
2018-07-30T23:03:41.434Z,8.47
2018-07-30T23:06:09.800Z,7.47
2018-07-30T23:08:38.445Z,8.10
2018-07-30T23:11:06.852Z,8.00
2018-07-30T23:13:35.217Z,9.50
2018-07-30T23:16:03.589Z,8.13
2018-07-30T23:18:31.942Z,8.10
2018-07-30T23:21:00.291Z,8.60
2018-07-30T23:23:29.332Z,8.53
2018-07-30T23:25:57.897Z,7.83
2018-07-30T23:28:26.423Z,8.23
2018-07-30T23:30:54.760Z,7.87
2018-07-30T23:33:23.204Z,7.37
2018-07-30T23:35:51.636Z,7.13
2018-07-30T23:38:20.240Z,7.43
2018-07-30T23:40:48.607Z,8.43
2018-07-30T23:43:16.998Z,7.70
2018-07-30T23:45:45.381Z,7.70
2018-07-30T23:48:13.779Z,8.60
2018-07-30T23:50:42.135Z,8.63
2018-07-30T23:53:10.496Z,9.57
2018-07-30T23:55:39.967Z,9.40
2018-07-30T23:58:08.345Z,8.10
